createdAt,value
2017-10-16T00:00:50.322Z,74.45
2017-10-16T00:03:19.540Z,74.23
2017-10-16T00:05:48.780Z,74.42
2017-10-16T00:08:18.064Z,74.54
2017-10-16T00:10:47.343Z,74.14
2017-10-16T00:13:16.560Z,74.11
2017-10-16T00:15:45.805Z,73.81
2017-10-16T00:18:15.014Z,74.12
2017-10-16T00:20:44.224Z,73.96
2017-10-16T00:23:13.464Z,73.82
2017-10-16T00:25:42.773Z,74.06
2017-10-16T00:28:12.061Z,73.86
2017-10-16T00:30:41.303Z,74.31
2017-10-16T00:33:10.516Z,74.35
2017-10-16T00:35:39.745Z,74.34
2017-10-16T00:38:09.722Z,74.55
2017-10-16T00:40:39.028Z,74.40
2017-10-16T00:43:08.230Z,74.22
2017-10-16T00:45:38.522Z,74.18
2017-10-16T00:48:07.704Z,73.89
2017-10-16T00:50:36.889Z,74.17
2017-10-16T00:53:06.117Z,74.30
2017-10-16T00:55:35.340Z,74.51
2017-10-16T00:58:04.543Z,74.26
2017-10-16T01:00:33.772Z,74.26
2017-10-16T01:03:02.992Z,74.19
2017-10-16T01:05:32.209Z,74.21
2017-10-16T01:08:01.507Z,74.08
2017-10-16T01:10:30.752Z,74.18
2017-10-16T01:13:00.747Z,74.25
2017-10-16T01:15:29.963Z,74.57
2017-10-16T01:17:59.940Z,74.49
2017-10-16T01:20:29.963Z,74.45
2017-10-16T01:22:59.195Z,74.42
2017-10-16T01:25:28.462Z,74.86
2017-10-16T01:27:57.680Z,74.97
2017-10-16T01:30:27.684Z,75.11
2017-10-16T01:32:56.883Z,75.21
2017-10-16T01:35:26.100Z,75.09
2017-10-16T01:37:56.078Z,75.14
2017-10-16T01:40:25.303Z,75.18
2017-10-16T01:42:55.386Z,75.32
2017-10-16T01:45:24.619Z,75.18
2017-10-16T01:47:54.655Z,75.52
2017-10-16T01:50:23.899Z,75.36
2017-10-16T01:52:53.132Z,75.34
2017-10-16T01:55:22.341Z,75.43
2017-10-16T01:57:52.332Z,75.55
2017-10-16T02:00:22.317Z,75.70
2017-10-16T02:02:51.544Z,75.49
2017-10-16T02:05:20.754Z,75.68
2017-10-16T02:07:50.752Z,75.63
2017-10-16T02:10:19.949Z,75.83
2017-10-16T02:12:50.047Z,76.08
2017-10-16T02:15:19.252Z,76.23
2017-10-16T02:17:48.491Z,76.19
2017-10-16T02:20:18.454Z,76.15
2017-10-16T02:22:47.691Z,76.05
2017-10-16T02:25:17.714Z,75.81
2017-10-16T02:27:48.368Z,76.06
2017-10-16T02:30:17.595Z,76.07
2017-10-16T02:32:46.791Z,76.21
2017-10-16T02:35:16.817Z,76.23
2017-10-16T02:37:46.035Z,76.22
2017-10-16T02:40:15.249Z,76.27
2017-10-16T02:42:45.246Z,76.30
2017-10-16T02:45:14.485Z,76.26
2017-10-16T02:47:43.732Z,76.49
2017-10-16T02:50:12.975Z,76.47
2017-10-16T02:52:42.198Z,76.38
2017-10-16T02:55:11.418Z,76.43
2017-10-16T02:57:40.659Z,76.34
2017-10-16T03:00:10.656Z,76.50
2017-10-16T03:02:39.939Z,76.58
2017-10-16T03:05:09.209Z,76.55
2017-10-16T03:07:38.448Z,76.63
2017-10-16T03:10:07.675Z,76.70
2017-10-16T03:12:36.984Z,76.84
2017-10-16T03:15:06.218Z,76.96
2017-10-16T03:17:35.425Z,77.09
2017-10-16T03:20:04.651Z,77.14
2017-10-16T03:22:34.712Z,77.16
2017-10-16T03:25:03.940Z,77.62
2017-10-16T03:27:33.957Z,77.50
2017-10-16T03:30:03.164Z,77.61
2017-10-16T03:32:32.396Z,77.85
2017-10-16T03:35:02.375Z,78.02
2017-10-16T03:37:31.630Z,78.33
2017-10-16T03:40:00.860Z,78.26
2017-10-16T03:42:30.081Z,78.10
2017-10-16T03:44:59.343Z,78.24
2017-10-16T03:47:28.582Z,78.23
2017-10-16T03:49:58.560Z,78.18
2017-10-16T03:52:27.788Z,77.87
2017-10-16T03:54:56.999Z,77.76
2017-10-16T03:57:27.006Z,77.71
2017-10-16T03:59:56.239Z,77.78
2017-10-16T04:02:25.454Z,77.74
2017-10-16T04:04:54.699Z,77.93
2017-10-16T04:07:23.896Z,78.10
2017-10-16T04:09:53.908Z,78.21
2017-10-16T04:12:23.911Z,78.06
2017-10-16T04:14:53.188Z,78.04
2017-10-16T04:17:22.420Z,78.21
2017-10-16T04:19:51.635Z,78.37
2017-10-16T04:22:21.622Z,78.19
2017-10-16T04:24:50.863Z,78.10
2017-10-16T04:27:20.077Z,78.10
2017-10-16T04:29:49.347Z,78.06
2017-10-16T04:32:19.327Z,78.17
2017-10-16T04:34:48.540Z,78.08
2017-10-16T04:37:17.755Z,78.01
2017-10-16T04:39:47.811Z,78.06
2017-10-16T04:42:17.756Z,77.97
2017-10-16T04:44:46.988Z,78.07
2017-10-16T04:47:17.040Z,78.09
2017-10-16T04:49:46.247Z,78.20
2017-10-16T04:52:15.492Z,78.00
2017-10-16T04:54:45.475Z,78.38
2017-10-16T04:57:16.263Z,78.10
2017-10-16T04:59:45.423Z,78.33
2017-10-16T05:02:14.672Z,78.33
2017-10-16T05:04:43.871Z,78.33
2017-10-16T05:07:13.103Z,78.17
2017-10-16T05:09:42.323Z,78.16
2017-10-16T05:12:12.327Z,77.94
2017-10-16T05:14:41.544Z,77.93
2017-10-16T05:17:10.787Z,77.86
2017-10-16T05:19:39.992Z,77.86
2017-10-16T05:22:09.228Z,77.83
2017-10-16T05:24:38.438Z,77.93
2017-10-16T05:27:08.451Z,77.75
2017-10-16T05:29:38.496Z,77.69
2017-10-16T05:32:07.732Z,77.47
2017-10-16T05:34:37.033Z,77.25
2017-10-16T05:37:06.235Z,77.34
2017-10-16T05:39:35.496Z,77.27
2017-10-16T05:42:04.731Z,77.22
2017-10-16T05:44:33.964Z,77.13
2017-10-16T05:47:03.932Z,77.35
2017-10-16T05:49:33.204Z,77.27
2017-10-16T05:52:02.439Z,77.17
2017-10-16T05:54:31.651Z,77.03
2017-10-16T05:57:00.983Z,76.98
2017-10-16T05:59:30.208Z,77.32
2017-10-16T06:01:59.475Z,77.32
2017-10-16T06:04:29.539Z,77.29
2017-10-16T06:06:58.883Z,77.19
2017-10-16T06:09:28.851Z,76.99
2017-10-16T06:11:58.140Z,76.97
2017-10-16T06:14:27.435Z,76.90
2017-10-16T06:16:56.655Z,76.66
2017-10-16T06:19:25.893Z,76.61
2017-10-16T06:21:55.884Z,76.75
2017-10-16T06:24:26.100Z,76.54
2017-10-16T06:26:55.342Z,76.34
2017-10-16T06:29:25.454Z,76.41
2017-10-16T06:31:55.435Z,76.66
2017-10-16T06:34:24.674Z,76.29
2017-10-16T06:36:53.904Z,76.22
2017-10-16T06:39:23.138Z,76.21
2017-10-16T06:41:52.346Z,76.17
2017-10-16T06:44:21.552Z,76.07
2017-10-16T06:46:51.570Z,76.26
2017-10-16T06:49:20.788Z,76.08
2017-10-16T06:51:50.015Z,76.11
2017-10-16T06:54:19.223Z,76.02
2017-10-16T06:56:48.459Z,75.85
2017-10-16T06:59:18.428Z,75.57
2017-10-16T07:01:47.671Z,75.67
2017-10-16T07:04:17.635Z,75.85
2017-10-16T07:06:46.927Z,75.66
2017-10-16T07:09:16.174Z,75.70
2017-10-16T07:11:45.584Z,75.76
2017-10-16T07:14:15.608Z,75.38
2017-10-16T07:16:45.575Z,75.28
2017-10-16T07:19:14.908Z,75.06
2017-10-16T07:21:44.136Z,74.52
2017-10-16T07:24:13.466Z,74.48
2017-10-16T07:26:42.679Z,74.51
2017-10-16T07:29:11.931Z,74.15
2017-10-16T07:31:41.151Z,73.75
2017-10-16T07:34:10.370Z,74.00
2017-10-16T07:36:39.616Z,73.84
2017-10-16T07:39:09.631Z,73.54
2017-10-16T07:41:38.911Z,73.48
2017-10-16T07:44:08.144Z,73.16
2017-10-16T07:46:37.406Z,72.85
2017-10-16T07:49:07.455Z,72.82
2017-10-16T07:51:36.735Z,71.79
2017-10-16T07:54:05.939Z,71.99
2017-10-16T07:56:35.247Z,71.92
2017-10-16T07:59:05.231Z,71.72
2017-10-16T08:01:34.466Z,71.48
2017-10-16T08:04:03.688Z,71.33
2017-10-16T08:06:32.956Z,70.93
2017-10-16T08:09:02.951Z,70.65
2017-10-16T08:11:32.190Z,70.35
2017-10-16T08:14:01.443Z,70.11
2017-10-16T08:16:31.446Z,70.13
2017-10-16T08:19:00.686Z,70.00
2017-10-16T08:21:29.922Z,69.59
2017-10-16T08:23:59.133Z,69.37
2017-10-16T08:26:28.396Z,68.75
2017-10-16T08:28:57.626Z,68.07
2017-10-16T08:31:26.823Z,66.97
2017-10-16T08:33:56.125Z,67.06
2017-10-16T08:36:26.347Z,66.05
2017-10-16T08:38:55.623Z,65.93
2017-10-16T08:41:24.899Z,65.01
2017-10-16T08:43:54.111Z,64.37
2017-10-16T08:46:23.502Z,64.03
2017-10-16T08:48:52.748Z,62.91
2017-10-16T08:51:21.997Z,62.27
2017-10-16T08:53:51.220Z,61.64
2017-10-16T08:56:20.463Z,60.51
2017-10-16T08:58:50.452Z,61.12
2017-10-16T09:01:19.690Z,61.16
2017-10-16T09:03:49.756Z,60.63
2017-10-16T09:06:18.964Z,59.90
2017-10-16T09:08:48.164Z,60.13
2017-10-16T09:11:17.427Z,59.28
2017-10-16T09:13:46.636Z,58.87
2017-10-16T09:16:15.878Z,58.90
2017-10-16T09:18:45.227Z,58.69
2017-10-16T09:21:14.634Z,58.47
2017-10-16T09:23:43.879Z,57.80
2017-10-16T09:26:13.872Z,57.84
2017-10-16T09:28:44.372Z,57.64
2017-10-16T09:31:13.576Z,56.80
2017-10-16T09:33:42.904Z,57.39
2017-10-16T09:36:12.112Z,57.25
2017-10-16T09:38:45.970Z,57.30
2017-10-16T09:41:15.200Z,56.90
2017-10-16T09:43:44.443Z,57.24
2017-10-16T09:46:13.676Z,57.13
2017-10-16T09:48:42.920Z,57.16
2017-10-16T09:51:12.939Z,56.85
2017-10-16T09:53:42.925Z,56.51
2017-10-16T09:56:12.127Z,57.30
2017-10-16T09:58:41.523Z,56.57
2017-10-16T10:01:10.797Z,56.59
2017-10-16T10:03:40.009Z,55.94
2017-10-16T10:06:09.267Z,55.54
2017-10-16T10:08:38.531Z,55.24
2017-10-16T10:11:07.743Z,54.82
2017-10-16T10:13:37.728Z,54.68
2017-10-16T10:16:06.953Z,54.99
2017-10-16T10:18:36.915Z,54.57
2017-10-16T10:21:06.159Z,54.98
2017-10-16T10:23:36.165Z,55.35
2017-10-16T10:26:05.395Z,54.84
2017-10-16T10:28:35.402Z,54.21
2017-10-16T10:31:04.696Z,53.85
2017-10-16T10:33:34.717Z,53.29
2017-10-16T10:36:04.747Z,54.09
2017-10-16T10:38:33.975Z,53.82
2017-10-16T10:41:03.186Z,53.63
2017-10-16T10:43:32.419Z,53.11
2017-10-16T10:46:02.479Z,53.39
2017-10-16T10:48:31.710Z,53.15
2017-10-16T10:51:00.943Z,53.46
2017-10-16T10:53:30.938Z,53.69
2017-10-16T10:56:00.148Z,53.26
2017-10-16T10:58:30.143Z,52.74
2017-10-16T11:00:59.363Z,53.17
2017-10-16T11:03:28.808Z,53.09
2017-10-16T11:05:58.776Z,52.79
2017-10-16T11:08:27.976Z,52.77
2017-10-16T11:10:57.980Z,52.73
2017-10-16T11:13:27.196Z,52.14
2017-10-16T11:15:57.244Z,52.04
2017-10-16T11:18:26.447Z,52.41
2017-10-16T11:20:55.697Z,52.32
2017-10-16T11:23:24.980Z,52.42
2017-10-16T11:25:54.292Z,51.88
2017-10-16T11:28:23.494Z,52.56
2017-10-16T11:30:53.535Z,51.18
2017-10-16T11:33:22.749Z,52.28
2017-10-16T11:35:51.964Z,52.43
2017-10-16T11:38:21.160Z,52.56
2017-10-16T11:40:50.449Z,52.22
2017-10-16T11:43:19.655Z,52.25
2017-10-16T11:45:48.875Z,51.82
2017-10-16T11:48:18.149Z,52.72
2017-10-16T11:50:47.354Z,51.87
2017-10-16T11:53:16.594Z,51.43
2017-10-16T11:55:46.574Z,51.96
2017-10-16T11:58:15.803Z,51.97
2017-10-16T12:00:45.760Z,51.51
2017-10-16T12:03:15.004Z,52.12
2017-10-16T12:05:44.212Z,51.58
2017-10-16T12:08:13.541Z,51.91
2017-10-16T12:10:43.516Z,52.27
2017-10-16T12:13:12.748Z,53.08
2017-10-16T12:15:42.710Z,52.91
2017-10-16T12:18:11.960Z,53.45
2017-10-16T12:20:41.912Z,52.85
2017-10-16T12:23:11.140Z,52.50
2017-10-16T12:25:40.531Z,52.05
2017-10-16T12:28:09.765Z,52.19
2017-10-16T12:30:39.735Z,52.16
2017-10-16T12:33:08.954Z,52.50
2017-10-16T12:35:38.191Z,52.54
2017-10-16T12:38:07.376Z,53.06
2017-10-16T12:40:36.695Z,53.15
2017-10-16T12:43:05.925Z,54.20
2017-10-16T12:45:35.175Z,54.24
2017-10-16T12:48:04.519Z,54.43
2017-10-16T12:50:33.705Z,54.27
2017-10-16T12:53:02.957Z,54.09
2017-10-16T12:55:32.133Z,53.83
2017-10-16T12:58:01.372Z,53.84
2017-10-16T13:00:30.600Z,53.86
2017-10-16T13:02:59.828Z,53.57
2017-10-16T13:05:29.024Z,53.40
2017-10-16T13:07:58.242Z,51.88
2017-10-16T13:10:28.255Z,52.17
2017-10-16T13:12:58.225Z,52.06
2017-10-16T13:15:27.525Z,52.31
2017-10-16T13:17:56.764Z,52.14
2017-10-16T13:20:26.032Z,51.95
2017-10-16T13:22:55.252Z,52.05
2017-10-16T13:25:24.531Z,52.50
2017-10-16T13:27:53.706Z,51.99
2017-10-16T13:30:22.923Z,51.78
2017-10-16T13:32:52.179Z,51.57
2017-10-16T13:35:22.503Z,51.36
2017-10-16T13:37:51.713Z,51.40
2017-10-16T13:40:21.270Z,51.17
2017-10-16T13:42:50.531Z,51.56
2017-10-16T13:45:19.738Z,51.30
2017-10-16T13:47:48.958Z,51.13
2017-10-16T13:50:18.189Z,50.89
2017-10-16T13:52:48.172Z,50.99
2017-10-16T13:55:18.268Z,50.59
2017-10-16T13:57:48.253Z,50.30
2017-10-16T14:00:17.445Z,50.56
2017-10-16T14:02:46.676Z,50.49
2017-10-16T14:05:15.911Z,49.89
2017-10-16T14:07:45.403Z,49.89
2017-10-16T14:10:15.077Z,49.38
2017-10-16T14:12:44.368Z,49.49
2017-10-16T14:15:13.655Z,49.65
2017-10-16T14:17:42.874Z,49.33
2017-10-16T14:20:12.114Z,49.53
2017-10-16T14:22:41.310Z,50.09
2017-10-16T14:25:10.520Z,50.46
2017-10-16T14:27:40.544Z,51.01
2017-10-16T14:30:10.533Z,50.95
2017-10-16T14:32:39.731Z,51.17
2017-10-16T14:35:08.949Z,51.15
2017-10-16T14:37:38.968Z,50.95
2017-10-16T14:40:08.965Z,51.08
2017-10-16T14:42:38.237Z,51.73
2017-10-16T14:45:07.446Z,51.91
2017-10-16T14:47:36.696Z,52.28
2017-10-16T14:50:05.889Z,52.63
2017-10-16T14:52:35.915Z,52.94
2017-10-16T14:55:05.861Z,53.02
2017-10-16T14:57:35.195Z,53.36
2017-10-16T15:00:04.392Z,53.25
2017-10-16T15:02:34.432Z,52.83
2017-10-16T15:05:04.394Z,53.28
2017-10-16T15:07:33.620Z,53.15
2017-10-16T15:10:02.835Z,53.50
2017-10-16T15:12:32.798Z,53.73
2017-10-16T15:15:02.031Z,53.48
2017-10-16T15:17:31.228Z,53.41
2017-10-16T15:20:00.477Z,53.35
2017-10-16T15:22:29.708Z,53.17
2017-10-16T15:24:58.933Z,53.33
2017-10-16T15:27:28.927Z,53.68
2017-10-16T15:29:58.181Z,53.71
2017-10-16T15:32:27.371Z,53.74
2017-10-16T15:34:56.620Z,53.99
2017-10-16T15:37:25.859Z,53.58
2017-10-16T15:39:55.068Z,53.60
2017-10-16T15:42:24.315Z,53.66
2017-10-16T15:44:53.511Z,54.01
2017-10-16T15:47:22.756Z,54.38
2017-10-16T15:49:55.018Z,54.33
2017-10-16T15:52:24.260Z,54.10
2017-10-16T15:54:53.449Z,54.25
2017-10-16T15:57:22.669Z,54.40
2017-10-16T15:59:51.869Z,54.21
2017-10-16T16:02:21.101Z,54.45
2017-10-16T16:04:51.101Z,55.10
2017-10-16T16:07:20.444Z,56.01
2017-10-16T16:09:49.687Z,56.29
2017-10-16T16:12:18.903Z,56.82
2017-10-16T16:14:48.910Z,57.30
2017-10-16T16:17:18.962Z,57.51
2017-10-16T16:19:48.247Z,58.09
2017-10-16T16:22:17.487Z,58.55
2017-10-16T16:24:46.777Z,59.20
2017-10-16T16:27:15.968Z,59.90
2017-10-16T16:29:45.191Z,60.84
2017-10-16T16:32:14.415Z,61.26
2017-10-16T16:34:44.411Z,61.18
2017-10-16T16:37:13.664Z,61.50
2017-10-16T16:39:42.919Z,61.61
2017-10-16T16:42:12.153Z,61.92
2017-10-16T16:44:41.392Z,61.31
2017-10-16T16:47:10.639Z,61.61
2017-10-16T16:49:40.701Z,61.87
2017-10-16T16:52:09.963Z,61.60
2017-10-16T16:54:40.051Z,61.33
2017-10-16T16:57:10.025Z,61.40
2017-10-16T16:59:39.270Z,61.71
2017-10-16T17:02:08.505Z,61.78
2017-10-16T17:04:37.731Z,61.78
2017-10-16T17:07:06.940Z,61.94
2017-10-16T17:09:36.271Z,61.99
2017-10-16T17:12:05.537Z,62.00
2017-10-16T17:14:34.806Z,62.11
2017-10-16T17:17:04.137Z,62.12
2017-10-16T17:19:33.362Z,62.56
2017-10-16T17:22:03.352Z,62.95
2017-10-16T17:24:32.636Z,63.36
2017-10-16T17:27:01.944Z,63.38
2017-10-16T17:29:31.197Z,63.47
2017-10-16T17:32:00.401Z,63.16
2017-10-16T17:34:29.728Z,63.46
2017-10-16T17:36:58.970Z,63.11
2017-10-16T17:39:29.172Z,63.06
2017-10-16T17:41:58.408Z,63.06
2017-10-16T17:44:28.405Z,62.80
2017-10-16T17:46:58.412Z,62.67
2017-10-16T17:49:27.721Z,62.71
2017-10-16T17:51:57.697Z,62.72
2017-10-16T17:54:26.940Z,62.74
2017-10-16T17:56:56.931Z,62.73
2017-10-16T17:59:26.189Z,62.45
2017-10-16T18:01:55.406Z,62.55
2017-10-16T18:04:24.779Z,62.71
2017-10-16T18:06:54.012Z,62.49
2017-10-16T18:09:23.292Z,62.54
2017-10-16T18:11:52.505Z,62.54
2017-10-16T18:14:21.744Z,62.69
2017-10-16T18:16:51.725Z,62.40
2017-10-16T18:19:21.106Z,62.44
2017-10-16T18:21:50.384Z,62.43
2017-10-16T18:24:19.612Z,62.45
2017-10-16T18:26:48.967Z,62.39
2017-10-16T18:29:18.265Z,62.45
2017-10-16T18:31:48.340Z,62.70
2017-10-16T18:34:17.643Z,62.73
2017-10-16T18:36:46.847Z,62.81
2017-10-16T18:39:16.081Z,62.91
2017-10-16T18:41:45.346Z,63.05
2017-10-16T18:44:14.559Z,63.14
2017-10-16T18:46:44.563Z,63.24
2017-10-16T18:49:13.770Z,63.22
2017-10-16T18:51:43.214Z,63.41
2017-10-16T18:54:13.214Z,63.60
2017-10-16T18:56:42.570Z,63.74
2017-10-16T18:59:11.808Z,63.89
2017-10-16T19:01:41.885Z,64.40
2017-10-16T19:04:11.133Z,64.14
2017-10-16T19:06:40.551Z,64.52
2017-10-16T19:09:09.761Z,64.47
2017-10-16T19:11:38.970Z,64.48
2017-10-16T19:14:08.220Z,64.70
2017-10-16T19:16:38.239Z,65.11
2017-10-16T19:19:07.545Z,65.34
2017-10-16T19:21:36.779Z,65.66
2017-10-16T19:24:06.004Z,65.79
2017-10-16T19:26:35.511Z,66.16
2017-10-16T19:29:05.576Z,66.01
2017-10-16T19:31:34.819Z,66.22
2017-10-16T19:34:05.491Z,66.43
2017-10-16T19:36:34.719Z,65.94
2017-10-16T19:39:03.969Z,65.72
2017-10-16T19:41:33.976Z,65.71
2017-10-16T19:44:04.002Z,65.89
2017-10-16T19:46:34.045Z,65.59
2017-10-16T19:49:03.248Z,65.20
2017-10-16T19:51:32.625Z,65.17
2017-10-16T19:54:02.614Z,65.28
2017-10-16T19:56:31.883Z,64.90
2017-10-16T19:59:01.114Z,65.06
2017-10-16T20:01:30.340Z,64.93
2017-10-16T20:03:59.627Z,64.71
2017-10-16T20:06:29.738Z,64.81
2017-10-16T20:08:59.795Z,64.49
2017-10-16T20:11:29.030Z,64.33
2017-10-16T20:13:58.238Z,64.30
2017-10-16T20:16:28.314Z,64.18
2017-10-16T20:18:57.568Z,64.12
2017-10-16T20:21:27.538Z,64.16
2017-10-16T20:23:56.773Z,64.39
2017-10-16T20:26:26.760Z,64.27
2017-10-16T20:28:56.041Z,64.26
2017-10-16T20:31:25.290Z,64.70
2017-10-16T20:33:55.298Z,64.79
2017-10-16T20:36:25.309Z,65.41
2017-10-16T20:38:54.572Z,65.94
2017-10-16T20:41:23.765Z,66.25
2017-10-16T20:43:53.043Z,66.21
2017-10-16T20:46:22.229Z,66.48
2017-10-16T20:48:51.492Z,67.31
2017-10-16T20:51:20.699Z,67.07
2017-10-16T20:53:50.784Z,67.20
2017-10-16T20:56:20.000Z,67.54
2017-10-16T20:58:49.248Z,67.87
2017-10-16T21:01:18.498Z,68.30
2017-10-16T21:03:47.711Z,69.03
2017-10-16T21:06:16.958Z,69.08
2017-10-16T21:08:46.163Z,69.00
2017-10-16T21:11:15.388Z,68.75
2017-10-16T21:13:44.592Z,68.64
2017-10-16T21:16:13.833Z,68.91
2017-10-16T21:18:43.039Z,69.34
2017-10-16T21:21:12.259Z,69.54
2017-10-16T21:23:41.493Z,69.75
2017-10-16T21:26:11.520Z,70.67
2017-10-16T21:28:41.603Z,70.51
2017-10-16T21:31:10.827Z,70.28
2017-10-16T21:33:40.828Z,70.67
2017-10-16T21:36:10.095Z,71.02
2017-10-16T21:38:39.460Z,71.22
2017-10-16T21:41:08.716Z,71.06
2017-10-16T21:43:37.953Z,70.41
2017-10-16T21:46:08.131Z,69.96
2017-10-16T21:48:37.472Z,70.30
2017-10-16T21:51:07.481Z,69.99
2017-10-16T21:53:37.480Z,69.35
2017-10-16T21:56:08.191Z,69.64
2017-10-16T21:58:37.428Z,67.98
2017-10-16T22:01:07.404Z,67.16
2017-10-16T22:03:36.763Z,66.62
2017-10-16T22:06:06.765Z,66.14
2017-10-16T22:08:36.852Z,65.81
2017-10-16T22:11:06.323Z,65.03
2017-10-16T22:13:37.907Z,64.96
2017-10-16T22:16:07.243Z,64.36
2017-10-16T22:18:37.224Z,64.48
2017-10-16T22:21:06.452Z,64.31
2017-10-16T22:23:35.658Z,63.50
2017-10-16T22:26:05.624Z,63.42
2017-10-16T22:28:34.861Z,63.17
2017-10-16T22:31:04.847Z,63.57
2017-10-16T22:33:35.589Z,63.10
2017-10-16T22:36:04.799Z,63.23
2017-10-16T22:38:34.783Z,62.94
2017-10-16T22:41:03.988Z,62.69
2017-10-16T22:43:33.223Z,62.47
2017-10-16T22:46:03.212Z,62.64
2017-10-16T22:48:39.672Z,62.21
2017-10-16T22:51:10.754Z,62.19
2017-10-16T22:53:39.963Z,61.93
2017-10-16T22:56:09.190Z,61.87
2017-10-16T22:58:39.233Z,61.60
2017-10-16T23:01:08.480Z,61.97
2017-10-16T23:03:37.672Z,61.93
2017-10-16T23:06:06.884Z,62.03
2017-10-16T23:08:36.083Z,61.49
2017-10-16T23:11:05.311Z,61.82
2017-10-16T23:13:34.509Z,61.80
2017-10-16T23:16:05.351Z,61.64
2017-10-16T23:18:34.585Z,61.61
2017-10-16T23:21:03.892Z,61.68
2017-10-16T23:23:33.096Z,61.81
2017-10-16T23:26:02.296Z,61.74
2017-10-16T23:28:31.552Z,62.18
2017-10-16T23:31:00.774Z,61.90
2017-10-16T23:33:30.017Z,61.75
2017-10-16T23:35:59.198Z,61.75
2017-10-16T23:38:28.423Z,62.25
2017-10-16T23:40:57.621Z,61.83
2017-10-16T23:43:26.805Z,62.26
2017-10-16T23:45:56.019Z,62.11
2017-10-16T23:48:25.239Z,62.50
2017-10-16T23:50:55.263Z,62.32
2017-10-16T23:53:25.234Z,62.34
2017-10-16T23:55:54.472Z,62.69
2017-10-16T23:58:24.478Z,62.49
